createdAt,value
2019-02-21T05:01:52.511Z,85.90
2019-02-21T05:04:27.684Z,85.90
2019-02-21T05:07:02.827Z,85.60
2019-02-21T05:09:27.397Z,85.70
2019-02-21T05:11:52.743Z,86.00
2019-02-21T05:14:29.471Z,86.90
2019-02-21T06:01:45.459Z,88.30
2019-02-21T06:04:39.955Z,88.10
2019-02-21T06:07:40.298Z,87.90
2019-02-21T06:10:34.642Z,87.90
2019-02-21T06:13:29.852Z,87.80
2019-02-21T07:01:30.136Z,86.60
2019-02-21T07:03:52.671Z,86.90
2019-02-21T07:06:15.149Z,87.10
2019-02-21T07:08:39.939Z,87.20
2019-02-21T07:11:06.110Z,87.20
2019-02-21T07:13:27.061Z,87.60
2019-02-21T08:02:37.929Z,83.60
2019-02-21T08:05:02.071Z,82.70
2019-02-21T08:07:26.475Z,82.70
2019-02-21T08:09:49.121Z,83.20
2019-02-21T08:12:11.639Z,82.30
2019-02-21T08:14:34.178Z,81.30
2019-02-21T09:00:41.458Z,64.50
2019-02-21T09:03:04.211Z,63.30
2019-02-21T09:05:26.641Z,63.30
2019-02-21T09:07:49.202Z,63.00
2019-02-21T09:10:12.074Z,60.10
2019-02-21T09:12:35.698Z,59.60
2019-02-21T09:14:58.148Z,59.50
2019-02-21T10:02:27.771Z,52.20
2019-02-21T10:04:50.231Z,50.90
2019-02-21T10:07:12.663Z,50.30
2019-02-21T10:09:35.126Z,48.50
2019-02-21T10:11:59.169Z,49.80
2019-02-21T10:14:21.804Z,48.50
2019-02-21T11:07:13.932Z,37.40
2019-02-21T11:09:36.382Z,37.20
2019-02-21T11:11:58.851Z,35.10
2019-02-21T11:14:22.486Z,35.20
2019-02-21T12:06:17.206Z,28.20
2019-02-21T12:08:40.025Z,27.70
2019-02-21T12:11:02.944Z,26.80
2019-02-21T12:13:25.928Z,27.70
2019-02-21T13:07:04.301Z,24.00
2019-02-21T13:09:26.861Z,25.70
2019-02-21T13:11:49.326Z,26.40
2019-02-21T13:14:11.891Z,27.10
2019-02-21T14:01:52.127Z,25.90
2019-02-21T14:04:27.300Z,26.80
2019-02-21T14:07:02.720Z,27.50
2019-02-21T14:09:38.096Z,27.40
2019-02-21T14:12:13.123Z,27.40
2019-02-21T14:14:48.261Z,25.40
2019-02-21T15:02:45.561Z,41.80
2019-02-21T15:05:20.632Z,42.20
2019-02-21T15:07:55.863Z,42.30
2019-02-21T15:10:31.920Z,42.80
2019-02-21T15:13:07.007Z,43.30
2019-02-21T16:02:48.711Z,48.60
2019-02-21T16:05:23.830Z,49.10
2019-02-21T16:07:58.689Z,49.50
2019-02-21T16:10:33.711Z,49.70
2019-02-21T16:12:56.890Z,50.20
2019-02-21T17:01:26.003Z,55.00
2019-02-21T17:03:48.543Z,55.40
2019-02-21T17:06:30.491Z,55.80
2019-02-21T17:09:05.158Z,55.90
2019-02-21T17:11:42.347Z,56.50
2019-02-21T17:14:17.636Z,56.80
2019-02-21T18:01:51.243Z,63.50
2019-02-21T18:04:26.162Z,63.80
2019-02-21T18:07:01.297Z,64.20
2019-02-21T18:09:36.410Z,64.50
2019-02-21T18:12:11.552Z,64.80
2019-02-21T18:41:22.108Z,67.70
2019-02-21T18:56:19.708Z,67.70
2019-02-21T18:58:42.699Z,67.60
2019-02-21T19:01:05.704Z,67.90
2019-02-21T19:03:29.167Z,68.00
2019-02-21T19:05:52.126Z,68.10
2019-02-21T19:08:14.897Z,68.20
2019-02-21T19:10:37.481Z,68.20
2019-02-21T19:13:00.204Z,68.20
2019-02-21T20:01:43.261Z,71.10
2019-02-21T20:04:18.223Z,71.70
2019-02-21T20:06:53.432Z,71.80
2019-02-21T20:09:28.687Z,71.80
2019-02-21T20:12:04.147Z,72.20
2019-02-21T20:14:39.277Z,72.80
2019-02-21T21:00:19.145Z,76.00
2019-02-21T21:02:43.320Z,75.90
2019-02-21T21:05:05.981Z,76.10
2019-02-21T21:07:30.544Z,76.00
2019-02-21T21:09:53.542Z,76.30
2019-02-21T21:12:28.652Z,76.90
